South Mason Valley, Nevada Weather observations

Data are for 10 minute period ending at time listed.
 Day   Time   Solar   Ave.   Ave.  Ave.  Vector  Max.   Baro.   Total    
  of    of     Rad.   Air    Rel.  Wind   Wind   Wind  Press.  Precip.   
Year   Day            Temp.  Hum.  Speed  Dir.   Gust                    
2016   (PST)  Kw/m2    F      %     mph   deg.    mph    mb.     in.     
-------------------------------------------------------------------------
 150   11:50   0.83   78.2    25    5.2   155    11.7   879.3    0.00 
 150   12:00   0.83   78.2    24    4.6   123    11.0   879.3    0.00 
 150   12:10   0.84   78.7    24    3.4   160     7.7   879.2    0.00 
 150   12:20   0.80   78.3    23    5.4   154    15.2   879.0    0.00 
 150   12:30   0.73   79.5    22    2.7   100     6.1   878.9    0.00 
 150   12:40   0.79   79.9    26    4.7   196    11.8   878.8    0.00 
 150   12:50   0.72   78.3    26    8.2   200    13.5   878.7    0.00 
 150   13:00   0.58   79.3    20    3.9    81     8.6   878.7    0.00 
 150   13:10   0.79   82.0    17    4.0     8     8.8   878.6    0.00 
 150   13:20   0.72   82.5    19    2.4   191     6.6   878.5    0.00 
 150   13:30   0.64   82.5    16    3.6   350     8.6   878.4    0.00 
 150   13:40   0.74   82.0    18    3.5   162     7.8   878.3    0.00 
 150   13:50   0.75   81.1    19    2.4   225     5.6   878.2    0.00 
 150   14:00   0.71   82.2    18    3.2   124     8.4   878.0    0.00 
 150   14:10   0.70   82.5    16    4.5    89     8.7   877.8    0.00 
 150   14:20   0.69   82.7    16    5.3   353     9.8   877.7    0.00 
 150   14:30   0.68   83.8    12    8.4   296    14.6   877.6    0.00 
 150   14:40   0.65   84.4    11    4.0     7    12.1   877.5    0.00 
 150   14:50   0.62   84.2    12    6.3   289    12.6   877.5    0.00 
 150   15:00   0.59   83.1    15    6.7   269    10.4   877.5    0.00 
 150   15:10   0.55   81.9    17    3.1   256     8.6   877.4    0.00 
 150   15:20   0.54   83.7    13    3.6   293     8.6   877.2    0.00 
 150   15:30   0.53   84.4    14    3.8   309     8.4   877.2    0.00 
 150   15:40   0.51   84.5    13    4.9   340     9.1   877.0    0.00 
 150   15:50   0.50   85.3    14    3.4    41     6.5   876.9    0.00 
 150   16:00   0.45   84.4    14    2.6   317     6.4   876.9    0.00 
 150   16:10   0.44   84.9    14    4.2   334     9.9   876.9    0.00 
 150   16:20   0.42   84.9    14    4.3   332    10.2   876.9    0.00 
 150   16:30   0.36   84.4    15    2.7   274     5.6   876.8    0.00 
 150   16:40   0.17   82.7    16    4.7   314    10.2   876.8    0.00 
 150   16:50   0.33   82.3    16    5.1   298     8.0   876.8    0.00 
 150   17:00   0.25   83.4    18    3.8   274     7.1   876.7    0.00 
 150   17:10   0.08   78.1    25    4.0   258     5.7   876.7    0.00 
 150   17:20   0.18   76.6    25    4.0   270     6.5   876.7    0.00 
 150   17:30   0.16   78.7    24    4.3   267     9.8   876.8    0.00 
 150   17:40   0.17   79.6    20   10.1   305    17.7   876.9    0.00 
 150   17:50   0.12   79.8    19   11.7   304    17.9   877.0    0.00 
 150   18:00   0.10   79.1    20    9.5   307    13.9   877.1    0.00 
 150   18:10   0.08   78.4    21    7.8   304    11.5   877.2    0.00 
 150   18:20   0.06   77.7    21    7.2   302    12.3   877.2    0.00 
 150   18:30   0.04   77.0    21    7.7   308    12.1   877.3    0.00 
 150   18:40   0.06   77.7    19    7.8   311    12.5   877.3    0.00 
 150   18:50   0.04   77.6    18    8.6   316    13.9   877.4    0.00 
 150   19:00   0.03   76.9    19    6.9   319    10.5   877.5    0.00 
 150   19:10   0.02   75.6    20    6.2   324     9.5   877.6    0.00 
 150   19:20   0.01   74.5    21    5.2   323     7.7   877.6    0.00 
 150   19:30   0.00   73.2    23    4.5   330     6.4   877.7    0.00 
 150   19:40   0.00   71.5    25    4.8   322     7.4   877.8    0.00 
 150   19:50   0.00   71.6    24    5.3   313     7.7   878.0    0.00 
 150   20:00   0.00   71.2    24    6.7   309    10.7   878.0    0.00 
 150   20:10   0.00   71.3    22    6.6   311    10.3   878.1    0.00 
 150   20:20   0.00   69.9    24    6.6   304     9.4   878.2    0.00 
 150   20:30   0.00   69.0    24    7.7   304    12.6   878.3    0.00 
 150   20:40   0.00   69.1    24    7.9   303    11.0   878.4    0.00 
 150   20:50   0.00   68.2    25    7.1   300    10.1   878.5    0.00 
 150   21:00   0.00   66.8    26    6.6   303     8.5   878.6    0.00 
 150   21:10   0.00   66.1    27    6.8   302     8.9   878.7    0.00 
 150   21:20   0.00   65.5    27    6.1   300     8.1   878.7    0.00 
 150   21:30   0.00   64.5    28    5.8   301     7.3   878.8    0.00 
 150   21:40   0.00   64.5    28    5.5   296     7.3   878.8    0.00 
 150   21:50   0.00   65.1    27    5.0   287     8.5   878.8    0.00 
 150   22:00   0.00   64.8    28    4.7   286     7.2   878.8    0.00 
 150   22:10   0.00   64.1    29    4.9   294     6.9   878.9    0.00 
 150   22:20   0.00   62.6    31    4.7   302     7.2   879.0    0.00 
 150   22:30   0.00   61.6    33    4.2   288     5.6   879.0    0.00 
 150   22:40   0.00   60.6    35    3.5   279     4.4   879.0    0.00 
 150   22:50   0.00   60.0    36    4.5   274     6.0   879.1    0.00 
 150   23:00   0.00   59.8    35    4.9   280     6.7   879.2    0.00 
 150   23:10   0.00   58.4    39    4.1   315     6.7   879.5    0.00 
 150   23:20   0.00   57.2    43    0.4    64     5.0   879.7    0.00 
 150   23:30   0.00   57.2    43    2.0   255     3.4   879.8    0.00 
 150   23:40   0.00   57.0    42    2.4   292     2.9   879.8    0.00 
 150   23:50   0.00   56.3    43    1.8   322     2.6   879.8    0.00 
 151    0:00   0.00   57.3    41    2.9   289     3.9   879.9    0.00 
 151    0:10   0.00   56.0    43    3.3   288     3.9   880.1    0.00 
 151    0:20   0.00   56.4    43    4.8   295     5.9   880.1    0.00 
 151    0:30   0.00   55.6    45    4.8   308     5.9   880.0    0.00 
 151    0:40   0.00   56.0    46    5.2   303     7.7   880.0    0.00 
 151    0:50   0.00   55.2    46    2.1   355     3.9   880.1    0.00 
 151    1:00   0.00   56.1    43    2.1   358     3.1   880.1    0.00 
 151    1:10   0.00   56.4    42    3.5   324     5.5   880.2    0.00 
 151    1:20   0.00   55.8    44    3.6   296     4.4   880.3    0.00 
 151    1:30   0.00   54.5    48    4.1   293     4.8   880.3    0.00 
 151    1:40   0.00   53.8    49    4.5   291     5.4   880.4    0.00 
 151    1:50   0.00   54.7    46    4.3   288     5.8   880.5    0.00 
 151    2:00   0.00   53.2    51    4.0   289     5.5   880.5    0.00 
 151    2:10   0.00   50.7    56    3.8   294     4.8   880.5    0.00 
 151    2:20   0.00   53.0    49    2.5   289     3.7   880.6    0.00 
 151    2:30   0.00   54.9    44    3.0   283     3.5   880.6    0.00 
 151    2:40   0.00   55.0    45    3.8   286     5.0   880.6    0.00 
 151    2:50   0.00   51.9    53    4.3   300     5.3   880.7    0.00 
 151    3:00   0.00   50.7    55    3.7   292     4.6   880.8    0.00 
 151    3:10   0.00   52.2    52    3.7   276     4.3   880.9    0.00 
 151    3:20   0.00   52.4    51    4.5   276     5.6   881.0    0.00 
 151    3:30   0.00   50.8    57    3.3   300     4.8   881.0    0.00 
 151    3:40   0.00   49.2    59    3.3   320     4.6   881.0    0.00 
 151    3:50   0.00   50.0    58    3.2   326     4.2   881.1    0.00 
 151    4:00   0.00   50.7    57    2.0   323     4.1   881.1    0.00 
 151    4:10   0.00   48.9    61    3.2   123     5.7   881.2    0.00 
 151    4:20   0.00   47.8    64    1.3   138     3.8   881.2    0.00 
 151    4:30   0.00   48.6    62    1.5   180     3.8   881.3    0.00 
 151    4:40   0.01   48.6    62    1.3   281     3.9   881.4    0.00 
 151    4:50   0.02   47.9    64    0.8   100     3.0   881.5    0.00 
 151    5:00   0.04   49.7    60    0.4   341     1.5   881.5    0.00 
 151    5:10   0.04   49.8    62    3.5   294     4.5   881.6    0.00 
 151    5:20   0.07   49.7    65    4.4   301     5.6   881.7    0.00 
 151    5:30   0.09   51.7    62    3.3   310     5.6   881.8    0.00 
 151    5:40   0.12   54.0    60    2.6   304     3.7   881.9    0.00 
 151    5:50   0.14   56.4    55    2.8   297     3.9   881.9    0.00 
 151    6:00   0.17   58.8    50    2.5   292     3.7   882.0    0.00 
 151    6:10   0.20   60.6    47    3.1   297     4.3   881.9    0.00 
 151    6:20   0.20   62.0    45    2.9   291     4.5   881.9    0.00 
 151    6:30   0.25   63.4    43    3.0   293     5.2   881.9    0.00 
 151    6:40   0.28   64.6    39    4.0   304     6.6   881.9    0.00 
 151    6:50   0.31   65.9    35    4.1   305     6.3   882.0    0.00 
 151    7:00   0.34   66.7    33    4.4   309     6.7   882.0    0.00 
 151    7:10   0.36   67.2    32    4.1   308     6.6   882.2    0.00 
 151    7:20   0.39   68.3    29    4.2   338     7.5   882.3    0.00 
 151    7:30   0.36   69.2    27    4.5   325     8.0   882.4    0.00 
 151    7:40   0.43   69.8    26    4.7   337     9.3   882.5    0.00 
 151    7:50   0.47   69.9    24    5.5   349     8.3   882.6    0.00 
 151    8:00   0.50   70.6    24    5.4   351     9.0   882.6    0.00 
 151    8:10   0.52   70.8    24    5.6   343     9.2   882.7    0.00 
 151    8:20   0.52   71.7    23    4.6   345    10.2   882.8    0.00 
 151    8:30   0.57   72.9    22    4.7    13     8.0   882.9    0.00 
 151    8:40   0.52   73.3    21    4.2   339     8.8   882.8    0.00 
 151    8:50   0.62   73.7    21    4.3    37     8.5   882.8    0.00 
 151    9:00   0.62   73.6    21    3.2   352     7.2   882.7    0.00 
 151    9:10   0.64   74.4    22    2.9    68     6.1   882.7    0.00 
 151    9:20   0.68   74.8    21    3.5    81     8.1   882.7    0.00 
 151    9:30   0.69   75.1    21    4.2    54     7.2   882.7    0.00 
 151    9:40   0.71   75.6    22    3.5    81     6.8   882.6    0.00 
 151    9:50   0.71   75.8    21    3.5     3     7.4   882.6    0.00 
 151   10:00   0.70   76.7    20    2.4    47     6.1   882.6    0.00 
 151   10:10   0.74   77.2    21    2.4    74     5.0   882.5    0.00 
 151   10:20   0.77   77.7    20    1.8    59     5.8   882.5    0.00 
 151   10:30   0.78   76.9    22    3.7   272     7.6   882.5    0.00 
 151   10:40   0.79   76.6    22    3.1    34     6.3   882.5    0.00 
 151   10:50   0.80   78.3    20    2.9   323     8.6   882.5    0.00 
 151   11:00   0.79   78.4    22    2.0   129     5.5   882.4    0.00 
 151   11:10   0.81   78.9    19    2.6    51     6.7   882.3    0.00 
 151   11:20   0.81   78.8    23    3.4   257     9.6   882.2    0.00 
 151   11:30   0.80   79.8    21    2.2    73     6.6   882.2    0.00 
 151   11:40   0.82   79.8    19    4.5    65     8.0   882.0    0.00 

Return to south Mason Valley graphs page.


Western Regional Climate Center,wrcc@dri.edu